Rumley, Texas
Current Conditions -  °F | °C
As of 12:35 AM on Thursday 29 Jan 2015 (Local Time) from KLZZ Reporting Station
Clear Clear  
Wind Chill: 16°   Ceiling: Unl
Heat Index: 16°   Visibility: 10mi
Dew Point:   Wind: 3mph
Humidity: 54%   Direction: 200°SSW
Pressure: 30.1"   Gusts: NA
Location:  31.0791°N, 98.0007°W
Report Text: KLZZ 290635Z AUTO 20003KT 10SM CLR 16/06 A3010 RMK AO2 T01560064
Loading
Personal Weather Stations






























Interactive Weather Map New forecast layout! Learn more

10-Day Weather Forecast

Advertisements
Track Severe Weather on mobile